Flight Track Log - Related Links

Times and Time Zones

All times are in EDT time to prevent confusion due to time zone crossing. See the N5253C flight status page for this flight to view local times or setup timezone preferences in your user account.

Time Position Orientation Groundspeed Altitude Reporting Facility
EDT Latitude Longitude Course Direction KTS MPH feet Rate Location/Type
Wed 04:34:21 PM 42.2281 -83.5472 231° Southwest 65 75 1,000  Level Cleveland Center
Wed 04:35:22 PM 42.2150 -83.5692 231° Southwest 70 81 1,700 672 Climbing Cleveland Center
Wed 04:36:17 PM 42.2125 -83.5914 261° West 84 97 2,300 672 Climbing Cleveland Center
Wed 04:37:18 PM 42.2222 -83.6142 300° West 82 94 3,000 397 Climbing Cleveland Center
Wed 04:38:18 PM 42.2447 -83.6322 329° Northwest 106 122 3,100 49 Climbing Cleveland Center
Wed 04:39:20 PM 42.2756 -83.6422 347° North 110 127 3,100  Level Cleveland Center
Wed 04:40:20 PM 42.3044 -83.6519 346° North 107 123 3,100  Level Cleveland Center
Wed 04:41:15 PM 42.3297 -83.6447 12° North 110 127 3,100  Level Cleveland Center
Wed 04:42:22 PM 42.3369 -83.6086 75° East 101 116 3,100  Level Cleveland Center
Wed 04:43:17 PM 42.3208 -83.5853 133° Southeast 96 110 3,100 -148 Level Cleveland Center
Wed 04:44:24 PM 42.2953 -83.6067 212° Southwest 92 106 2,800 -234 Descending Cleveland Center
Wed 04:45:25 PM 42.2822 -83.6283 231° Southwest 83 96 2,600 -234 Descending Cleveland Center
Wed 04:46:32 PM 42.2667 -83.6669 241° Southwest 93 107 2,300 -358 Descending Cleveland Center
Wed 04:47:39 PM 42.2514 -83.6914 230° Southwest 78 90 1,800 -425 Descending Cleveland Center
Wed 04:48:39 PM 42.2383 -83.7161 235° Southwest 84 97 1,400 -165 Descending Cleveland Center
Wed 04:50:00 PM 42.2371 -83.6672 92° East  Level FlightAware Approximate
Wed 04:50:41 PM 42.2139 -83.7625 92° East 73 84 1,300  Level Cleveland Center
Wed 04:51:24 PM 42.2158 -83.7767 281° West 81 93 1,700 635 Climbing Cleveland Center
Wed 04:52:25 PM 42.2272 -83.8081 296° West 87 100 2,400 639 Climbing Cleveland Center
Wed 04:53:26 PM 42.2433 -83.8314 313° West 94 108 3,000 590 Climbing Cleveland Center

Login

Don't have an account? Register now (free) for customized features, flight alerts, and more!